Time;durP1;ratioP1;P1;durP2;ratioP2;P2;SDS_P1;SDS_P2;PMS_P1;PMS_P2;Temp;Humidity;BMP_temperature;BMP_pressure;BME280_temperature;BME280_humidity;BME280_pressure;Samples;Min_cycle;Max_cycle;Signal;HPM_P1;HPM_P2
2024/01/24 00:01:54;;;;;;;3.93;0.90;;;;;;;;;;4980235;28;20182;-83
2024/01/24 00:04:58;;;;;;;4.50;1.00;;;;;;;;;;4968561;28;20211;-82
2024/01/24 00:08:02;;;;;;;2.27;1.20;;;;;;;;;;4980169;28;20628;-82
2024/01/24 00:11:07;;;;;;;3.40;1.10;;;;;;;;;;4968927;28;20552;-82
2024/01/24 00:14:11;;;;;;;4.07;1.10;;;;;;;;;;4968563;28;20183;-83
2024/01/24 00:17:15;;;;;;;1.50;1.00;;;;;;;;;;4979634;28;20191;-82
2024/01/24 00:20:20;;;;;;;5.50;1.20;;;;;;;;;;4968511;28;20557;-82
2024/01/24 00:23:24;;;;;;;2.57;0.90;;;;;;;;;;4969410;28;20206;-82
2024/01/24 00:26:28;;;;;;;2.20;0.80;;;;;;;;;;4979761;28;20226;-82
2024/01/24 00:29:33;;;;;;;3.00;1.10;;;;;;;;;;4979096;28;20556;-82
2024/01/24 00:32:37;;;;;;;2.47;0.97;;;;;;;;;;4978665;28;20183;-82
2024/01/24 00:35:41;;;;;;;3.30;1.13;;;;;;;;;;4979632;28;20227;-82
2024/01/24 00:38:45;;;;;;;2.17;0.67;;;;;;;;;;4980103;28;20186;-82
2024/01/24 00:41:49;;;;;;;2.67;1.00;;;;;;;;;;4956779;28;20191;-82
2024/01/24 00:44:53;;;;;;;3.57;1.00;;;;;;;;;;4967476;28;20586;-82
2024/01/24 00:47:57;;;;;;;2.07;0.83;;;;;;;;;;4978585;28;20191;-82
2024/01/24 00:51:03;;;;;;;2.20;0.90;;;;;;;;;;4979588;28;20630;-81
2024/01/24 00:54:07;;;;;;;1.60;0.80;;;;;;;;;;4967781;28;20651;-82
2024/01/24 00:57:11;;;;;;;1.87;0.73;;;;;;;;;;4978562;28;20552;-82
2024/01/24 01:00:16;;;;;;;1.43;0.67;;;;;;;;;;4945723;28;20187;-82
2024/01/24 01:03:20;;;;;;;2.20;0.70;;;;;;;;;;4979968;28;20211;-81
2024/01/24 01:06:26;;;;;;;2.60;0.70;;;;;;;;;;4967834;28;20226;-82
2024/01/24 01:09:30;;;;;;;1.50;0.80;;;;;;;;;;4968009;28;20187;-82
2024/01/24 01:12:34;;;;;;;3.37;0.60;;;;;;;;;;4979104;28;20216;-82
2024/01/24 01:15:38;;;;;;;1.77;0.80;;;;;;;;;;4978996;28;20695;-82
2024/01/24 01:18:43;;;;;;;1.23;0.60;;;;;;;;;;4978374;28;20624;-81
2024/01/24 01:21:47;;;;;;;2.07;0.90;;;;;;;;;;4977950;28;20195;-82
2024/01/24 01:24:51;;;;;;;1.53;0.67;;;;;;;;;;4978710;28;20210;-82
2024/01/24 01:27:55;;;;;;;1.23;0.67;;;;;;;;;;4977713;28;20195;-82
2024/01/24 01:30:59;;;;;;;1.57;0.70;;;;;;;;;;4978492;28;20186;-82
2024/01/24 01:34:04;;;;;;;1.97;0.70;;;;;;;;;;4978376;28;20183;-82
2024/01/24 01:37:08;;;;;;;2.20;0.50;;;;;;;;;;4966454;28;20186;-82
2024/01/24 01:40:12;;;;;;;1.80;0.87;;;;;;;;;;4966563;28;20190;-82
2024/01/24 01:43:16;;;;;;;3.23;0.70;;;;;;;;;;4978728;28;20214;-82
2024/01/24 01:46:21;;;;;;;3.20;1.10;;;;;;;;;;4977944;28;20226;-81
2024/01/24 01:49:26;;;;;;;2.67;0.70;;;;;;;;;;4978060;28;20636;-82
2024/01/24 01:52:30;;;;;;;1.13;0.63;;;;;;;;;;4966661;28;20186;-82
2024/01/24 01:55:36;;;;;;;1.10;0.53;;;;;;;;;;4977667;28;20222;-82
2024/01/24 01:58:41;;;;;;;2.03;0.60;;;;;;;;;;4977832;28;20195;-82
2024/01/24 02:01:46;;;;;;;1.30;0.70;;;;;;;;;;4966327;28;20521;-82
2024/01/24 02:04:50;;;;;;;1.77;0.60;;;;;;;;;;4965496;28;20230;-82
2024/01/24 02:07:54;;;;;;;3.43;0.70;;;;;;;;;;4977781;28;20191;-82
2024/01/24 02:10:59;;;;;;;3.60;0.80;;;;;;;;;;4965499;28;20559;-82
2024/01/24 02:14:03;;;;;;;1.77;0.50;;;;;;;;;;4978167;28;20183;-82
2024/01/24 02:17:07;;;;;;;1.67;0.63;;;;;;;;;;4977823;28;20187;-82
2024/01/24 02:20:15;;;;;;;2.83;0.67;;;;;;;;;;4977632;28;20186;-82
2024/01/24 02:23:22;;;;;;;2.83;0.93;;;;;;;;;;4977436;28;20214;-82
2024/01/24 02:26:26;;;;;;;1.77;0.60;;;;;;;;;;4976181;28;20226;-82
2024/01/24 02:29:30;;;;;;;1.23;0.60;;;;;;;;;;4965374;28;20190;-82
2024/01/24 02:32:34;;;;;;;1.13;0.67;;;;;;;;;;4954311;28;20182;-82
2024/01/24 02:35:38;;;;;;;1.40;0.70;;;;;;;;;;4976420;28;20231;-82
2024/01/24 02:38:42;;;;;;;1.63;0.50;;;;;;;;;;4977406;28;20187;-82
2024/01/24 02:41:46;;;;;;;2.47;0.77;;;;;;;;;;4965663;28;20191;-82
2024/01/24 02:44:51;;;;;;;0.90;0.60;;;;;;;;;;4964811;28;20234;-82
2024/01/24 02:47:55;;;;;;;2.30;0.63;;;;;;;;;;4965136;28;20190;-82
2024/01/24 02:50:59;;;;;;;3.30;0.90;;;;;;;;;;4977340;28;20195;-82
2024/01/24 02:54:04;;;;;;;1.87;0.70;;;;;;;;;;4976967;28;20182;-82
2024/01/24 02:57:08;;;;;;;1.20;0.70;;;;;;;;;;4976970;28;20187;-82
2024/01/24 03:00:13;;;;;;;3.17;1.20;;;;;;;;;;4976067;28;20187;-82
2024/01/24 03:03:17;;;;;;;1.20;0.70;;;;;;;;;;4976605;28;20214;-82
2024/01/24 03:06:21;;;;;;;1.73;0.63;;;;;;;;;;4975801;28;20223;-82
2024/01/24 03:09:25;;;;;;;2.00;0.70;;;;;;;;;;4964980;28;20183;-82
2024/01/24 03:12:30;;;;;;;3.03;0.80;;;;;;;;;;4964503;28;20187;-82
2024/01/24 03:15:34;;;;;;;1.37;0.50;;;;;;;;;;4976903;28;20219;-82
2024/01/24 03:18:38;;;;;;;1.07;0.60;;;;;;;;;;4975431;28;20187;-82
2024/01/24 03:21:43;;;;;;;2.40;0.60;;;;;;;;;;4978107;28;20195;-82
2024/01/24 03:24:47;;;;;;;1.40;0.50;;;;;;;;;;4965091;28;20234;-82
2024/01/24 03:27:51;;;;;;;1.30;0.70;;;;;;;;;;4975919;28;20190;-82
2024/01/24 03:30:55;;;;;;;1.10;0.57;;;;;;;;;;4965129;28;20194;-82
2024/01/24 03:33:59;;;;;;;2.33;0.63;;;;;;;;;;4964476;28;20187;-82
2024/01/24 03:37:04;;;;;;;1.53;0.53;;;;;;;;;;4965301;28;20186;-82
2024/01/24 03:40:08;;;;;;;1.70;0.73;;;;;;;;;;4964967;28;20182;-82
2024/01/24 03:43:12;;;;;;;2.77;0.50;;;;;;;;;;4964882;28;20191;-82
2024/01/24 03:46:20;;;;;;;3.77;0.73;;;;;;;;;;4976095;28;20234;-82
2024/01/24 03:49:24;;;;;;;1.17;0.50;;;;;;;;;;4965227;28;20189;-82
2024/01/24 03:52:29;;;;;;;0.87;0.60;;;;;;;;;;4964728;28;20190;-82
2024/01/24 03:55:33;;;;;;;3.07;0.50;;;;;;;;;;4976336;28;20219;-82
2024/01/24 03:58:37;;;;;;;2.10;0.50;;;;;;;;;;4964107;28;20186;-82
2024/01/24 04:01:42;;;;;;;2.40;0.67;;;;;;;;;;4976092;28;20191;-82
2024/01/24 04:04:46;;;;;;;2.53;0.60;;;;;;;;;;4976141;28;20234;-82
2024/01/24 04:07:50;;;;;;;0.60;0.50;;;;;;;;;;4976039;28;20195;-82
2024/01/24 04:10:55;;;;;;;0.60;0.40;;;;;;;;;;4976011;28;20191;-82
2024/01/24 04:14:01;;;;;;;1.83;0.80;;;;;;;;;;4975175;28;20187;-82
2024/01/24 04:17:05;;;;;;;1.77;0.60;;;;;;;;;;4976449;28;20187;-82
2024/01/24 04:20:09;;;;;;;1.03;0.50;;;;;;;;;;4964716;28;20183;-82
2024/01/24 04:23:13;;;;;;;3.20;0.60;;;;;;;;;;4977056;28;20191;-82
2024/01/24 04:26:21;;;;;;;2.17;0.60;;;;;;;;;;4978630;28;20210;-82
2024/01/24 04:29:25;;;;;;;1.47;0.50;;;;;;;;;;4956692;28;20187;-82
2024/01/24 04:32:29;;;;;;;2.20;0.80;;;;;;;;;;4967552;28;20191;-81
2024/01/24 04:35:33;;;;;;;2.90;0.60;;;;;;;;;;4978675;28;20226;-82
2024/01/24 04:38:38;;;;;;;1.33;0.57;;;;;;;;;;4978746;28;20191;-82
2024/01/24 04:41:43;;;;;;;2.87;0.70;;;;;;;;;;4967573;28;20186;-82
2024/01/24 04:44:48;;;;;;;3.40;0.63;;;;;;;;;;4978811;28;20234;-82
2024/01/24 04:47:52;;;;;;;0.60;0.60;;;;;;;;;;4978679;28;20187;-82
2024/01/24 04:50:56;;;;;;;1.60;0.70;;;;;;;;;;4978888;28;20675;-82
2024/01/24 04:54:01;;;;;;;1.40;0.60;;;;;;;;;;4967153;28;20529;-82
2024/01/24 04:57:05;;;;;;;2.83;0.70;;;;;;;;;;4978901;28;20194;-82
2024/01/24 05:00:11;;;;;;;1.40;0.50;;;;;;;;;;4966715;28;20187;-82
2024/01/24 05:03:15;;;;;;;2.57;0.63;;;;;;;;;;4967275;28;20187;-82
2024/01/24 05:06:20;;;;;;;1.00;0.40;;;;;;;;;;4978913;28;20207;-82
2024/01/24 05:09:24;;;;;;;0.60;0.40;;;;;;;;;;4978703;28;20191;-82
2024/01/24 05:12:28;;;;;;;2.27;0.87;;;;;;;;;;4978720;28;20634;-82
2024/01/24 05:15:32;;;;;;;1.80;0.53;;;;;;;;;;4967464;28;20218;-82
2024/01/24 05:18:37;;;;;;;1.00;0.50;;;;;;;;;;4967239;28;20194;-82
2024/01/24 05:21:42;;;;;;;1.00;0.60;;;;;;;;;;4978414;28;20191;-82
2024/01/24 05:24:46;;;;;;;1.93;0.63;;;;;;;;;;4977125;28;20230;-82
2024/01/24 05:27:50;;;;;;;1.37;0.70;;;;;;;;;;4977971;28;20199;-82
2024/01/24 05:30:54;;;;;;;5.13;0.50;;;;;;;;;;4978436;28;20182;-82
2024/01/24 05:33:59;;;;;;;1.53;0.60;;;;;;;;;;4965474;28;20202;-82
2024/01/24 05:37:04;;;;;;;3.50;0.60;;;;;;;;;;4978298;28;20191;-83
2024/01/24 05:40:08;;;;;;;1.20;0.70;;;;;;;;;;4977431;28;20191;-83
2024/01/24 05:43:12;;;;;;;0.53;0.47;;;;;;;;;;4965373;28;20187;-83
2024/01/24 05:46:16;;;;;;;1.93;0.80;;;;;;;;;;4977241;28;20214;-83
2024/01/24 05:49:21;;;;;;;1.20;0.70;;;;;;;;;;4976335;28;20191;-83
2024/01/24 05:52:25;;;;;;;1.50;0.70;;;;;;;;;;4965087;28;20183;-83
2024/01/24 05:55:29;;;;;;;3.77;0.70;;;;;;;;;;4965191;28;20214;-83
2024/01/24 05:58:34;;;;;;;1.57;0.70;;;;;;;;;;4965207;28;20187;-82
2024/01/24 06:01:38;;;;;;;1.07;0.60;;;;;;;;;;4965978;28;20191;-82
2024/01/24 06:04:42;;;;;;;1.43;0.60;;;;;;;;;;4977001;28;20239;-83
2024/01/24 06:07:49;;;;;;;1.63;0.80;;;;;;;;;;4976629;28;20195;-83
2024/01/24 06:10:53;;;;;;;1.80;0.63;;;;;;;;;;4977206;28;20183;-83
2024/01/24 06:13:57;;;;;;;1.90;0.40;;;;;;;;;;4965649;28;20187;-83
2024/01/24 06:17:01;;;;;;;1.23;0.73;;;;;;;;;;4976601;28;20186;-83
2024/01/24 06:20:06;;;;;;;0.90;0.50;;;;;;;;;;4977454;28;20187;-80
2024/01/24 06:23:10;;;;;;;1.30;0.73;;;;;;;;;;4976455;28;20191;-81
2024/01/24 06:26:14;;;;;;;0.63;0.60;;;;;;;;;;4976972;28;20230;-81
2024/01/24 06:29:19;;;;;;;3.53;1.00;;;;;;;;;;4976837;28;20195;-81
2024/01/24 06:32:23;;;;;;;3.03;0.70;;;;;;;;;;4987171;28;20182;-81
2024/01/24 06:35:28;;;;;;;4.33;1.00;;;;;;;;;;4964403;28;20234;-81
2024/01/24 06:38:32;;;;;;;1.30;0.50;;;;;;;;;;4975796;28;20191;-81
2024/01/24 06:41:36;;;;;;;1.07;0.60;;;;;;;;;;4976569;28;20183;-81
2024/01/24 06:44:40;;;;;;;1.30;0.60;;;;;;;;;;4976539;28;20226;-81
2024/01/24 06:47:45;;;;;;;3.03;0.80;;;;;;;;;;4976450;28;20194;-81
2024/01/24 06:50:49;;;;;;;2.93;0.63;;;;;;;;;;4977065;28;20190;-81
2024/01/24 06:53:53;;;;;;;0.87;0.57;;;;;;;;;;4976680;28;20190;-82
2024/01/24 06:56:57;;;;;;;2.07;0.70;;;;;;;;;;4987472;28;20187;-83
2024/01/24 07:00:04;;;;;;;0.60;0.57;;;;;;;;;;4976471;28;20635;-83
2024/01/24 07:03:09;;;;;;;3.40;2.40;;;;;;;;;;4986843;28;20186;-83
2024/01/24 07:06:13;;;;;;;3.83;1.50;;;;;;;;;;4976062;28;20699;-83
2024/01/24 07:09:17;;;;;;;1.20;0.80;;;;;;;;;;4976098;28;20195;-83
2024/01/24 07:12:22;;;;;;;2.00;0.80;;;;;;;;;;4975955;28;20186;-83
2024/01/24 07:15:26;;;;;;;1.03;0.73;;;;;;;;;;4975896;28;20222;-83
2024/01/24 07:18:34;;;;;;;3.07;0.80;;;;;;;;;;4976485;28;20191;-83
2024/01/24 07:21:39;;;;;;;1.47;0.53;;;;;;;;;;4965368;28;20195;-84
2024/01/24 07:24:44;;;;;;;0.57;0.53;;;;;;;;;;4964778;28;20230;-83
2024/01/24 07:27:49;;;;;;;3.20;1.67;;;;;;;;;;4953403;28;20191;-83
2024/01/24 07:30:53;;;;;;;1.23;0.73;;;;;;;;;;4976069;28;20183;-83
2024/01/24 07:33:58;;;;;;;3.47;0.80;;;;;;;;;;4976200;28;20195;-83
2024/01/24 07:37:01;;;;;;;2.17;0.60;;;;;;;;;;4963826;28;20520;-83
2024/01/24 07:40:07;;;;;;;1.70;0.73;;;;;;;;;;4976000;28;20537;-83
2024/01/24 07:43:11;;;;;;;2.47;0.70;;;;;;;;;;4975549;28;20183;-83
2024/01/24 07:46:15;;;;;;;0.70;0.60;;;;;;;;;;4964450;28;20226;-83
2024/01/24 07:49:19;;;;;;;2.43;0.83;;;;;;;;;;4986149;28;20524;-83
2024/01/24 07:52:23;;;;;;;2.73;0.80;;;;;;;;;;4964981;28;20635;-83
2024/01/24 07:55:27;;;;;;;1.40;0.70;;;;;;;;;;4986782;28;20222;-84
2024/01/24 07:58:33;;;;;;;2.47;1.07;;;;;;;;;;4956905;28;20182;-84
2024/01/24 08:01:37;;;;;;;1.70;0.80;;;;;;;;;;4979512;28;20194;-83
2024/01/24 08:04:41;;;;;;;1.37;0.87;;;;;;;;;;4990815;28;20218;-84
2024/01/24 08:07:45;;;;;;;1.63;0.50;;;;;;;;;;4967969;28;20199;-83
2024/01/24 08:10:49;;;;;;;1.10;0.93;;;;;;;;;;4957581;28;20190;-84
2024/01/24 08:13:54;;;;;;;2.00;0.70;;;;;;;;;;4980341;28;20183;-84
2024/01/24 08:17:03;;;;;;;4.00;0.80;;;;;;;;;;4957317;28;20183;-84
2024/01/24 08:20:11;;;;;;;1.30;0.80;;;;;;;;;;4967962;28;20643;-83
2024/01/24 08:23:15;;;;;;;0.97;0.60;;;;;;;;;;4980395;28;20182;-83
2024/01/24 08:26:19;;;;;;;0.93;0.67;;;;;;;;;;4980307;28;20572;-83
2024/01/24 08:29:26;;;;;;;2.07;1.20;;;;;;;;;;4978849;28;20186;-84
2024/01/24 08:32:31;;;;;;;0.70;0.60;;;;;;;;;;4979237;28;20536;-83
2024/01/24 08:35:36;;;;;;;2.60;0.67;;;;;;;;;;4978183;28;20230;-84
2024/01/24 08:38:43;;;;;;;1.73;0.70;;;;;;;;;;4956709;28;20183;-84
2024/01/24 08:41:47;;;;;;;2.00;0.80;;;;;;;;;;4978501;28;20183;-83
2024/01/24 08:44:51;;;;;;;2.70;0.70;;;;;;;;;;4978232;28;20218;-84
2024/01/24 08:47:56;;;;;;;1.37;0.70;;;;;;;;;;4979361;28;20198;-83
2024/01/24 08:51:00;;;;;;;4.47;3.40;;;;;;;;;;4979041;28;20186;-83
2024/01/24 08:54:04;;;;;;;1.20;0.80;;;;;;;;;;4956039;28;20182;-84
2024/01/24 08:57:10;;;;;;;2.60;0.60;;;;;;;;;;4979039;28;20187;-83
2024/01/24 09:00:14;;;;;;;2.00;0.80;;;;;;;;;;4989925;28;20500;-84
2024/01/24 09:03:18;;;;;;;1.83;0.80;;;;;;;;;;4990039;28;20198;-83
2024/01/24 09:06:22;;;;;;;3.00;0.70;;;;;;;;;;4978861;28;20226;-82
2024/01/24 09:09:29;;;;;;;1.40;0.60;;;;;;;;;;4977973;28;20186;-83
2024/01/24 09:12:33;;;;;;;0.50;0.50;;;;;;;;;;4978857;28;20191;-84
2024/01/24 09:15:38;;;;;;;1.23;0.60;;;;;;;;;;4978770;28;20222;-83
2024/01/24 09:18:42;;;;;;;2.17;0.80;;;;;;;;;;4989489;28;20186;-83
2024/01/24 09:21:46;;;;;;;15.20;9.10;;;;;;;;;;4966542;28;20187;-83
2024/01/24 09:24:50;;;;;;;7.47;4.70;;;;;;;;;;4977782;28;20222;-85
2024/01/24 09:27:56;;;;;;;1.70;0.70;;;;;;;;;;4977794;28;20183;-84
2024/01/24 09:31:00;;;;;;;1.47;0.83;;;;;;;;;;4978234;28;20191;-81
2024/01/24 09:34:05;;;;;;;1.53;0.80;;;;;;;;;;4979557;28;20540;-81
2024/01/24 09:37:11;;;;;;;0.87;0.40;;;;;;;;;;4979796;28;20179;-81
2024/01/24 09:40:45;;;;;;;0.73;0.50;;;;;;;;;;4989217;28;20191;-85
2024/01/24 09:43:55;;;;;;;0.40;0.40;;;;;;;;;;4955242;28;20179;-85
2024/01/24 09:47:01;;;;;;;0.50;0.50;;;;;;;;;;4976591;28;20211;-85
2024/01/24 09:50:07;;;;;;;0.67;0.40;;;;;;;;;;4977125;28;20525;-86
2024/01/24 09:53:20;;;;;;;1.27;0.50;;;;;;;;;;4955989;28;20183;-85
2024/01/24 09:56:26;;;;;;;1.00;0.47;;;;;;;;;;4978686;28;20222;-86
2024/01/24 09:59:36;;;;;;;1.00;0.40;;;;;;;;;;4979367;28;20191;-85
2024/01/24 10:02:46;;;;;;;1.43;0.60;;;;;;;;;;4977838;28;20183;-85
2024/01/24 10:05:52;;;;;;;0.70;0.40;;;;;;;;;;4978298;28;20226;-85
2024/01/24 10:08:59;;;;;;;0.93;0.40;;;;;;;;;;4978616;28;20200;-85
2024/01/24 10:12:04;;;;;;;0.90;0.40;;;;;;;;;;4956265;28;20532;-85
2024/01/24 10:15:10;;;;;;;0.80;0.50;;;;;;;;;;4967210;28;20218;-85
2024/01/24 10:18:15;;;;;;;0.83;0.50;;;;;;;;;;4978462;28;20191;-84
2024/01/24 10:21:21;;;;;;;0.93;0.50;;;;;;;;;;4966609;28;20191;-84
2024/01/24 10:24:44;;;;;;;2.50;1.50;;;;;;;;;;4964443;28;20532;-86
2024/01/24 10:27:51;;;;;;;3.73;2.17;;;;;;;;;;4953406;28;20207;-85
2024/01/24 10:30:56;;;;;;;0.60;0.60;;;;;;;;;;4954027;28;20537;-84
2024/01/24 10:34:00;;;;;;;3.10;0.50;;;;;;;;;;4965408;28;20532;-85
2024/01/24 10:37:11;;;;;;;9.33;0.53;;;;;;;;;;4976326;28;20187;-85
2024/01/24 10:40:16;;;;;;;1.13;0.43;;;;;;;;;;4988165;28;20187;-85
2024/01/24 10:43:23;;;;;;;0.77;0.43;;;;;;;;;;4976971;28;20179;-86
2024/01/24 10:46:27;;;;;;;1.67;0.50;;;;;;;;;;4965756;28;20230;-84
2024/01/24 10:49:31;;;;;;;1.07;0.50;;;;;;;;;;4966062;28;20191;-84
2024/01/24 10:52:39;;;;;;;0.60;0.40;;;;;;;;;;4955569;28;20306;-85
2024/01/24 10:55:43;;;;;;;0.40;0.40;;;;;;;;;;4976608;28;20222;-84
2024/01/24 10:58:48;;;;;;;3.63;0.47;;;;;;;;;;4976489;28;20639;-84
2024/01/24 11:01:52;;;;;;;1.27;0.47;;;;;;;;;;4954151;28;20183;-84
2024/01/24 11:04:59;;;;;;;0.90;0.43;;;;;;;;;;4977684;28;20222;-83
2024/01/24 11:08:09;;;;;;;1.50;0.53;;;;;;;;;;4978327;28;20179;-86
2024/01/24 11:11:17;;;;;;;1.13;0.40;;;;;;;;;;4965837;28;20187;-83
2024/01/24 11:14:29;;;;;;;0.30;0.30;;;;;;;;;;4983605;28;20191;-82
2024/01/24 11:17:34;;;;;;;1.47;0.60;;;;;;;;;;4979080;28;20245;-83
2024/01/24 11:20:45;;;;;;;1.23;0.37;;;;;;;;;;4968576;28;20187;-82
2024/01/24 11:23:50;;;;;;;3.47;0.50;;;;;;;;;;4980617;28;20183;-82
2024/01/24 11:26:54;;;;;;;2.10;1.23;;;;;;;;;;4957761;28;20214;-80
2024/01/24 11:30:15;;;;;;;0.60;0.60;;;;;;;;;;4980559;28;20190;-80
2024/01/24 11:33:19;;;;;;;0.40;0.40;;;;;;;;;;4982506;28;20195;-81
2024/01/24 11:36:25;;;;;;;0.83;0.40;;;;;;;;;;4984482;28;20222;-81
2024/01/24 11:39:35;;;;;;;1.20;0.33;;;;;;;;;;4983629;28;20195;-80
2024/01/24 11:42:43;;;;;;;1.03;0.50;;;;;;;;;;4987180;28;20175;-80
2024/01/24 11:45:47;;;;;;;0.67;0.47;;;;;;;;;;4988655;28;20223;-80
2024/01/24 11:48:51;;;;;;;1.33;0.47;;;;;;;;;;4988310;28;20191;-80
2024/01/24 11:52:02;;;;;;;0.40;0.40;;;;;;;;;;4992423;28;20631;-80
2024/01/24 11:55:07;;;;;;;0.90;0.50;;;;;;;;;;4988289;28;20219;-81
2024/01/24 11:58:11;;;;;;;2.13;0.40;;;;;;;;;;4988008;28;20183;-82
2024/01/24 12:01:16;;;;;;;0.90;0.40;;;;;;;;;;4988202;28;20199;-82
2024/01/24 12:04:22;;;;;;;0.47;0.33;;;;;;;;;;4987362;28;20191;-83
2024/01/24 12:07:28;;;;;;;2.77;0.40;;;;;;;;;;4988050;28;20215;-83
2024/01/24 12:10:32;;;;;;;2.30;0.50;;;;;;;;;;4998688;28;20187;-83
2024/01/24 12:13:37;;;;;;;0.97;0.40;;;;;;;;;;4976433;28;20186;-82
2024/01/24 12:16:41;;;;;;;13.03;8.60;;;;;;;;;;4987792;28;20187;-83
2024/01/24 12:19:45;;;;;;;0.90;0.40;;;;;;;;;;4975645;28;20186;-83
2024/01/24 12:22:50;;;;;;;1.63;0.40;;;;;;;;;;4986419;28;20191;-83
2024/01/24 12:25:55;;;;;;;0.73;0.30;;;;;;;;;;4986034;28;20226;-82
2024/01/24 12:29:00;;;;;;;1.40;0.40;;;;;;;;;;4997324;28;20191;-83
2024/01/24 12:32:06;;;;;;;0.97;0.40;;;;;;;;;;4986671;28;20179;-83
2024/01/24 12:35:12;;;;;;;1.20;0.60;;;;;;;;;;4985102;28;20230;-82
2024/01/24 12:38:17;;;;;;;0.57;0.50;;;;;;;;;;4986404;28;20183;-83
2024/01/24 12:41:22;;;;;;;0.50;0.40;;;;;;;;;;4986159;28;20191;-82
2024/01/24 12:44:26;;;;;;;0.50;0.47;;;;;;;;;;4984640;28;20179;-82
2024/01/24 12:47:34;;;;;;;0.43;0.40;;;;;;;;;;4951860;28;20215;-82
2024/01/24 12:50:38;;;;;;;0.40;0.40;;;;;;;;;;4984459;28;20187;-82
2024/01/24 12:53:42;;;;;;;1.13;0.50;;;;;;;;;;4995012;28;20187;-82
2024/01/24 12:56:47;;;;;;;0.90;0.50;;;;;;;;;;4984291;28;20183;-82
2024/01/24 12:59:52;;;;;;;0.67;0.53;;;;;;;;;;4994844;28;20636;-83
2024/01/24 13:02:58;;;;;;;2.23;0.50;;;;;;;;;;4983707;28;20187;-82
2024/01/24 13:06:02;;;;;;;1.13;0.40;;;;;;;;;;4983263;28;20698;-83
2024/01/24 13:09:08;;;;;;;0.40;0.33;;;;;;;;;;4983421;28;20191;-82
2024/01/24 13:12:12;;;;;;;0.80;0.50;;;;;;;;;;4983307;28;20643;-83
2024/01/24 13:15:16;;;;;;;0.60;0.40;;;;;;;;;;4993924;28;20226;-83
2024/01/24 13:18:22;;;;;;;0.50;0.50;;;;;;;;;;4983565;28;20183;-83
2024/01/24 13:21:27;;;;;;;0.70;0.67;;;;;;;;;;4982058;28;20183;-83
2024/01/24 13:24:31;;;;;;;2.43;1.83;;;;;;;;;;4982958;28;20191;-83
2024/01/24 13:27:36;;;;;;;1.50;1.40;;;;;;;;;;4982416;28;20563;-83
2024/01/24 13:30:41;;;;;;;2.37;1.87;;;;;;;;;;4982037;28;20187;-83
2024/01/24 13:33:47;;;;;;;7.00;4.37;;;;;;;;;;4981090;28;20187;-83
2024/01/24 13:36:52;;;;;;;4.37;3.03;;;;;;;;;;4980762;28;20187;-83
2024/01/24 13:39:56;;;;;;;1.70;1.60;;;;;;;;;;4969458;28;20198;-83
2024/01/24 13:43:00;;;;;;;1.40;1.30;;;;;;;;;;4980811;28;20190;-82
2024/01/24 13:46:05;;;;;;;2.17;1.00;;;;;;;;;;4990562;28;20222;-82
2024/01/24 13:49:09;;;;;;;1.30;0.90;;;;;;;;;;4979891;28;20183;-83
2024/01/24 13:52:14;;;;;;;1.30;1.20;;;;;;;;;;4968702;28;20195;-83
2024/01/24 13:55:18;;;;;;;1.20;1.10;;;;;;;;;;4980452;28;20227;-83
2024/01/24 13:58:24;;;;;;;1.50;0.73;;;;;;;;;;4979605;28;20187;-85
2024/01/24 14:01:28;;;;;;;1.57;0.80;;;;;;;;;;4979659;28;20187;-85
2024/01/24 14:04:32;;;;;;;0.97;0.63;;;;;;;;;;4979069;28;20190;-84
2024/01/24 14:07:38;;;;;;;1.13;0.60;;;;;;;;;;4979675;28;20214;-84
2024/01/24 14:10:42;;;;;;;1.57;0.77;;;;;;;;;;4968105;28;20187;-81
2024/01/24 14:13:48;;;;;;;0.90;0.70;;;;;;;;;;4991429;28;20190;-81
2024/01/24 14:16:55;;;;;;;1.53;0.80;;;;;;;;;;4969340;28;20187;-81
2024/01/24 14:20:01;;;;;;;0.70;0.67;;;;;;;;;;4979232;28;20182;-81
2024/01/24 14:23:06;;;;;;;3.03;1.57;;;;;;;;;;4978671;28;20187;-81
2024/01/24 14:26:12;;;;;;;4.60;1.73;;;;;;;;;;4980142;28;20226;-80
2024/01/24 14:29:16;;;;;;;2.03;1.40;;;;;;;;;;4991894;28;20179;-81
2024/01/24 14:32:25;;;;;;;5.00;2.50;;;;;;;;;;4978325;28;20186;-87
2024/01/24 14:35:32;;;;;;;8.60;5.60;;;;;;;;;;4966655;28;20226;-82
2024/01/24 14:38:36;;;;;;;16.30;8.93;;;;;;;;;;4980272;28;20187;-83
2024/01/24 14:41:40;;;;;;;7.13;3.73;;;;;;;;;;4984540;28;20187;-84
2024/01/24 14:44:46;;;;;;;7.70;3.73;;;;;;;;;;4972322;28;20218;-82
2024/01/24 14:47:50;;;;;;;25.80;12.97;;;;;;;;;;4979232;28;20218;-84
2024/01/24 14:50:55;;;;;;;18.00;9.67;;;;;;;;;;4956247;28;20198;-85
2024/01/24 14:53:59;;;;;;;4.90;2.90;;;;;;;;;;4979631;28;20187;-85
2024/01/24 14:57:03;;;;;;;0.80;0.77;;;;;;;;;;4978070;28;20182;-84
2024/01/24 15:00:11;;;;;;;1.70;1.00;;;;;;;;;;4966715;28;20187;-85
2024/01/24 15:03:15;;;;;;;3.73;1.30;;;;;;;;;;4989503;28;20187;-84
2024/01/24 15:06:20;;;;;;;3.03;0.93;;;;;;;;;;4966382;28;20218;-85
2024/01/24 15:09:24;;;;;;;6.63;3.20;;;;;;;;;;4977262;28;20663;-84
2024/01/24 15:12:28;;;;;;;4.67;3.20;;;;;;;;;;4979637;28;20187;-82
2024/01/24 15:15:33;;;;;;;5.17;2.07;;;;;;;;;;4966951;28;20226;-82
2024/01/24 15:18:38;;;;;;;3.27;1.83;;;;;;;;;;4956113;28;20182;-82
2024/01/24 15:21:42;;;;;;;1.40;1.30;;;;;;;;;;4967630;28;20190;-83
2024/01/24 15:24:51;;;;;;;1.33;0.87;;;;;;;;;;4980102;28;20222;-82
2024/01/24 15:27:57;;;;;;;1.60;0.60;;;;;;;;;;4969891;28;20222;-82
2024/01/24 15:31:01;;;;;;;1.10;0.80;;;;;;;;;;4978880;28;20206;-82
2024/01/24 15:34:05;;;;;;;1.33;0.60;;;;;;;;;;4978159;28;20187;-81
2024/01/24 15:37:09;;;;;;;3.30;1.00;;;;;;;;;;4980499;28;20204;-84
2024/01/24 15:40:17;;;;;;;3.93;1.40;;;;;;;;;;4979756;28;20187;-83
2024/01/24 15:43:21;;;;;;;4.63;1.73;;;;;;;;;;4955670;28;20195;-83
2024/01/24 15:46:51;;;;;;;5.00;2.57;;;;;;;;;;4969005;28;20223;-84
2024/01/24 15:50:00;;;;;;;1.27;0.60;;;;;;;;;;4993782;28;20190;-84
2024/01/24 15:53:13;;;;;;;2.37;0.70;;;;;;;;;;4970550;28;20183;-83
2024/01/24 15:56:18;;;;;;;2.27;1.10;;;;;;;;;;4967404;28;20222;-82
2024/01/24 15:59:22;;;;;;;3.20;1.77;;;;;;;;;;4966571;28;20183;-84
2024/01/24 16:02:29;;;;;;;3.53;1.00;;;;;;;;;;4968764;28;20631;-84
2024/01/24 16:05:41;;;;;;;3.57;1.20;;;;;;;;;;4969247;28;20231;-83
2024/01/24 16:08:45;;;;;;;2.57;0.70;;;;;;;;;;4980989;28;20667;-83
2024/01/24 16:11:50;;;;;;;2.87;1.20;;;;;;;;;;4980194;28;20187;-83
2024/01/24 16:14:54;;;;;;;3.47;1.97;;;;;;;;;;4984742;28;20226;-84
2024/01/24 16:18:02;;;;;;;4.40;1.20;;;;;;;;;;4983891;28;20183;-84
2024/01/24 16:21:06;;;;;;;6.50;4.73;;;;;;;;;;4969929;28;20187;-85
2024/01/24 16:24:11;;;;;;;6.73;2.10;;;;;;;;;;4986747;28;20194;-84
2024/01/24 16:27:26;;;;;;;2.63;1.10;;;;;;;;;;4984136;28;20191;-84
2024/01/24 16:30:34;;;;;;;6.37;1.83;;;;;;;;;;4971047;28;20184;-84
2024/01/24 16:33:40;;;;;;;11.73;5.00;;;;;;;;;;4971156;28;20186;-84
2024/01/24 16:36:44;;;;;;;18.60;11.87;;;;;;;;;;4970301;28;20203;-82
2024/01/24 16:39:49;;;;;;;4.93;2.20;;;;;;;;;;4981458;28;20520;-84
2024/01/24 16:42:53;;;;;;;3.50;1.37;;;;;;;;;;4958909;28;20632;-85
2024/01/24 16:45:59;;;;;;;5.17;1.20;;;;;;;;;;4991640;28;20222;-84
2024/01/24 16:49:03;;;;;;;2.57;1.43;;;;;;;;;;4980939;28;20210;-84
2024/01/24 16:52:07;;;;;;;2.97;1.30;;;;;;;;;;4983223;28;20191;-84
2024/01/24 16:55:13;;;;;;;5.40;3.00;;;;;;;;;;4983012;28;20230;-84
2024/01/24 16:58:18;;;;;;;3.30;1.00;;;;;;;;;;4992984;28;20183;-83
2024/01/24 17:01:22;;;;;;;5.40;1.50;;;;;;;;;;4981267;28;20223;-83
2024/01/24 17:04:28;;;;;;;2.47;1.03;;;;;;;;;;4980985;28;20186;-84
2024/01/24 17:07:32;;;;;;;6.60;2.50;;;;;;;;;;4980853;28;20211;-84
2024/01/24 17:10:36;;;;;;;3.50;1.60;;;;;;;;;;4982291;28;20187;-82
2024/01/24 17:13:41;;;;;;;5.83;1.47;;;;;;;;;;4968573;28;20191;-83
2024/01/24 17:16:45;;;;;;;4.80;1.30;;;;;;;;;;4980492;28;20191;-83
2024/01/24 17:19:49;;;;;;;4.17;1.20;;;;;;;;;;4992550;28;20635;-83
2024/01/24 17:22:53;;;;;;;5.87;1.80;;;;;;;;;;4992083;28;20191;-81
2024/01/24 17:25:57;;;;;;;10.00;1.57;;;;;;;;;;4979348;28;20230;-83
2024/01/24 17:29:02;;;;;;;6.33;1.67;;;;;;;;;;4981748;28;20215;-83
2024/01/24 17:32:06;;;;;;;4.73;1.47;;;;;;;;;;4980934;28;20547;-83
2024/01/24 17:35:11;;;;;;;7.47;1.80;;;;;;;;;;4990555;28;20234;-84
2024/01/24 17:38:15;;;;;;;8.17;1.70;;;;;;;;;;4958159;28;20636;-83
2024/01/24 17:41:20;;;;;;;8.57;1.90;;;;;;;;;;4980869;28;20191;-83
2024/01/24 17:44:25;;;;;;;5.53;1.60;;;;;;;;;;4968026;28;20636;-84
2024/01/24 17:47:30;;;;;;;8.83;1.70;;;;;;;;;;4969689;28;20579;-84
2024/01/24 17:50:36;;;;;;;12.10;2.10;;;;;;;;;;4971317;28;20187;-84
2024/01/24 17:53:41;;;;;;;6.90;1.70;;;;;;;;;;4981691;28;20186;-84
2024/01/24 17:56:45;;;;;;;9.23;2.10;;;;;;;;;;4959823;28;20640;-83
2024/01/24 17:59:49;;;;;;;6.23;1.53;;;;;;;;;;4994057;28;20182;-83
2024/01/24 18:02:54;;;;;;;10.73;1.70;;;;;;;;;;4984605;28;20191;-83
2024/01/24 18:06:01;;;;;;;9.17;1.97;;;;;;;;;;4993899;28;20223;-83
2024/01/24 18:09:06;;;;;;;8.53;1.80;;;;;;;;;;4983282;28;20223;-83
2024/01/24 18:12:10;;;;;;;6.13;1.70;;;;;;;;;;4981049;28;20183;-83
2024/01/24 18:15:14;;;;;;;8.10;3.97;;;;;;;;;;4990674;28;20226;-83
2024/01/24 18:18:18;;;;;;;11.70;6.73;;;;;;;;;;4980870;28;20179;-83
2024/01/24 18:21:26;;;;;;;11.87;5.17;;;;;;;;;;4980939;28;20186;-83
2024/01/24 18:24:32;;;;;;;8.67;4.00;;;;;;;;;;4990275;28;20187;-83
2024/01/24 18:27:36;;;;;;;5.67;2.70;;;;;;;;;;4982200;28;20187;-83
2024/01/24 18:30:40;;;;;;;9.27;3.70;;;;;;;;;;4992766;28;20191;-83